Gallatin Field
KBZN : rendu visible

Aérodrome :











RETROUVEZ-NOUS SUR...

 
LOGIN :

S'inscrire | Disclaimer

   EN    FR    IT 

 









Légende :    VFR   VFR Marginal   IFR   IFR Intensif   IFR Très Intensif
Visi : 
Plafond : 
>= 8 km
>= 3000ft
5 à 8 km
1000 à 3000 ft
1500m à 5 km
500 à 1000 ft
800 à 1500m
200 à 500 ft
< 800m
< 200 ft
Symboles :   Orages  Brouillard  Fortes neiges  Fortes précipitations  Vent > 20 kt






- Altitude de l'aérodrome : 4473 ft
- Code IATA : BZN


KBZN - Gallatin Field

DERNIER METAR :
  • 242156Z 03005KT 10SM BKN070 OVC090 05/01 A2991 RMK AO2 SLP151 T00500006

METARs EXPIRÉS :
  • 242056Z AUTO 00000KT 10SM OVC110 05/00 A2992 RMK AO2 SLP150 T00500000 56014
  • 241956Z 31003KT 10SM BKN120 05/M01 A2993 RMK AO2 SLP152 T00501011

TAF KBZN
Valide du 24 à 18h jusqu'au 26 à 00h UTC


241720Z 2418/2524 VRB06KT P6SM SCT060 BKN100
FM242000 VRB06KT P6SM VCSH SCT040 BKN060
TEMPO 2421/2424 6SM -SHRA BR BKN040
FM250000 VRB06KT P6SM VCSH SCT030 OVC040
TEMPO 2500/2502 4SM -SHRASN BR BKN025
FM250300 VRB06KT P6SM SCT030 BKN070
FM252100 VRB06KT P6SM FEW050 SCT120



MET'MAP, la Météo Aéronautique d'un coup d'oeil ! - Copyright ORBIFLY Décembre 2007 - Disclaimer

ORBIFLY MET'MAP TEAM :

Programmation & Développement : Alexandra Zaïnal
Sur une idée originale de : Baudouin d'Aumeries
Assistance à la programmation : Marc-Olivier Méhu
Soutien technique & logistique : Manuel Goepfert

Contact : metmap@orbifly.com




SOURCES & CREDITS :

   NOAA       Earth
Advisory